sensor_id;sensor_type;location;lat;lon;timestamp;pressure;altitude;pressure_sealevel;temperature;humidity
40155;BME280;25875;48.202;16.334;2023-02-02T00:01:22;99049.47;;;3.59;69.00
40155;BME280;25875;48.202;16.334;2023-02-02T00:03:49;99071.75;;;3.44;69.14
40155;BME280;25875;48.202;16.334;2023-02-02T00:06:16;99078.94;;;3.37;69.26
40155;BME280;25875;48.202;16.334;2023-02-02T00:08:43;99078.41;;;3.26;69.54
40155;BME280;25875;48.202;16.334;2023-02-02T00:11:10;99085.72;;;3.15;69.64
40155;BME280;25875;48.202;16.334;2023-02-02T00:13:37;99084.19;;;3.08;70.05
40155;BME280;25875;48.202;16.334;2023-02-02T00:19:17;99080.22;;;2.95;70.24
40155;BME280;25875;48.202;16.334;2023-02-02T00:21:44;99062.03;;;2.90;70.26
40155;BME280;25875;48.202;16.334;2023-02-02T00:24:13;99042.97;;;2.85;70.13
40155;BME280;25875;48.202;16.334;2023-02-02T00:26:41;99023.75;;;2.86;70.28
40155;BME280;25875;48.202;16.334;2023-02-02T00:29:13;99022.09;;;2.83;70.66
40155;BME280;25875;48.202;16.334;2023-02-02T00:31:40;98999.47;;;2.81;70.41
40155;BME280;25875;48.202;16.334;2023-02-02T00:34:09;99011.84;;;2.76;70.63
40155;BME280;25875;48.202;16.334;2023-02-02T00:36:38;99010.13;;;2.75;70.61
40155;BME280;25875;48.202;16.334;2023-02-02T00:39:05;98945.19;;;2.29;70.68
40155;BME280;25875;48.202;16.334;2023-02-02T00:41:32;99005.06;;;2.69;70.80
40155;BME280;25875;48.202;16.334;2023-02-02T00:43:59;99001.63;;;2.67;70.90
40155;BME280;25875;48.202;16.334;2023-02-02T00:46:43;99004.34;;;2.64;70.87
40155;BME280;25875;48.202;16.334;2023-02-02T00:49:10;98997.31;;;2.66;70.91
40155;BME280;25875;48.202;16.334;2023-02-02T00:51:38;99006.91;;;2.65;70.95
40155;BME280;25875;48.202;16.334;2023-02-02T00:54:05;99008.63;;;2.66;70.92
40155;BME280;25875;48.202;16.334;2023-02-02T00:56:32;99003.34;;;2.68;70.78
40155;BME280;25875;48.202;16.334;2023-02-02T00:58:59;99000.72;;;2.68;70.57
40155;BME280;25875;48.202;16.334;2023-02-02T01:01:26;99009.53;;;2.65;70.59
40155;BME280;25875;48.202;16.334;2023-02-02T01:03:53;99022.59;;;2.65;70.63
40155;BME280;25875;48.202;16.334;2023-02-02T01:06:19;99027.81;;;2.67;70.88
40155;BME280;25875;48.202;16.334;2023-02-02T01:08:48;99015.63;;;2.66;71.03
40155;BME280;25875;48.202;16.334;2023-02-02T01:11:15;99019.28;;;2.60;71.18
40155;BME280;25875;48.202;16.334;2023-02-02T01:13:42;99027.16;;;2.59;71.08
40155;BME280;25875;48.202;16.334;2023-02-02T01:16:09;99028.91;;;2.58;71.26
40155;BME280;25875;48.202;16.334;2023-02-02T01:18:36;99027.28;;;2.54;71.48
40155;BME280;25875;48.202;16.334;2023-02-02T01:21:06;99029.00;;;2.55;71.62
40155;BME280;25875;48.202;16.334;2023-02-02T01:23:33;99034.28;;;2.53;71.85
40155;BME280;25875;48.202;16.334;2023-02-02T01:26:04;99017.41;;;2.33;72.02
40155;BME280;25875;48.202;16.334;2023-02-02T01:28:31;99067.59;;;2.47;72.12
40155;BME280;25875;48.202;16.334;2023-02-02T01:31:04;99065.84;;;2.47;72.24
40155;BME280;25875;48.202;16.334;2023-02-02T01:33:31;99032.78;;;2.45;72.26
40155;BME280;25875;48.202;16.334;2023-02-02T01:36:03;99004.09;;;2.42;72.26
40155;BME280;25875;48.202;16.334;2023-02-02T01:38:30;99004.09;;;2.42;72.02
40155;BME280;25875;48.202;16.334;2023-02-02T01:40:57;99009.28;;;2.43;71.98
40155;BME280;25875;48.202;16.334;2023-02-02T01:43:28;98998.03;;;2.40;72.35
40155;BME280;25875;48.202;16.334;2023-02-02T01:45:56;99009.41;;;2.39;72.35
40155;BME280;25875;48.202;16.334;2023-02-02T01:48:26;98999.94;;;2.35;72.57
40155;BME280;25875;48.202;16.334;2023-02-02T01:50:59;98998.97;;;2.37;72.70
40155;BME280;25875;48.202;16.334;2023-02-02T01:53:28;98998.94;;;2.39;72.68
40155;BME280;25875;48.202;16.334;2023-02-02T01:55:55;98998.84;;;2.42;72.24
40155;BME280;25875;48.202;16.334;2023-02-02T01:58:27;99004.94;;;2.42;72.37
40155;BME280;25875;48.202;16.334;2023-02-02T02:00:54;98997.88;;;2.46;72.15
40155;BME280;25875;48.202;16.334;2023-02-02T02:03:24;98995.22;;;2.47;72.20
40155;BME280;25875;48.202;16.334;2023-02-02T02:05:53;98998.63;;;2.49;72.00
40155;BME280;25875;48.202;16.334;2023-02-02T02:08:24;99005.63;;;2.49;72.44
40155;BME280;25875;48.202;16.334;2023-02-02T02:10:52;99014.38;;;2.48;72.45
40155;BME280;25875;48.202;16.334;2023-02-02T02:13:21;99020.44;;;2.50;72.23
40155;BME280;25875;48.202;16.334;2023-02-02T02:16:14;99034.38;;;2.50;72.35
40155;BME280;25875;48.202;16.334;2023-02-02T02:18:49;99033.47;;;2.51;72.23
40155;BME280;25875;48.202;16.334;2023-02-02T02:21:31;99034.31;;;2.52;72.71
40155;BME280;25875;48.202;16.334;2023-02-02T02:25:00;99025.75;;;2.47;73.67
40155;BME280;25875;48.202;16.334;2023-02-02T02:28:27;99019.78;;;2.42;73.94
40155;BME280;25875;48.202;16.334;2023-02-02T02:31:21;99022.47;;;2.39;73.69
40155;BME280;25875;48.202;16.334;2023-02-02T02:33:58;99020.75;;;2.38;72.96
40155;BME280;25875;48.202;16.334;2023-02-02T02:36:32;99027.66;;;2.40;73.11
40155;BME280;25875;48.202;16.334;2023-02-02T02:39:05;99025.94;;;2.39;72.90
40155;BME280;25875;48.202;16.334;2023-02-02T02:41:40;99022.53;;;2.37;72.92
40155;BME280;25875;48.202;16.334;2023-02-02T02:44:11;99026.81;;;2.40;72.53
40155;BME280;25875;48.202;16.334;2023-02-02T02:46:41;99022.34;;;2.43;72.44
40155;BME280;25875;48.202;16.334;2023-02-02T02:49:10;99032.78;;;2.45;72.32
40155;BME280;25875;48.202;16.334;2023-02-02T02:51:42;99018.88;;;2.43;72.17
40155;BME280;25875;48.202;16.334;2023-02-02T02:54:09;99011.94;;;2.42;72.29
40155;BME280;25875;48.202;16.334;2023-02-02T02:56:43;99015.28;;;2.47;72.79
40155;BME280;25875;48.202;16.334;2023-02-02T02:59:22;99012.72;;;2.45;72.84
40155;BME280;25875;48.202;16.334;2023-02-02T03:02:00;99017.97;;;2.44;72.53
40155;BME280;25875;48.202;16.334;2023-02-02T03:04:37;99015.44;;;2.41;72.61
40155;BME280;25875;48.202;16.334;2023-02-02T03:07:09;99009.41;;;2.39;72.19
40155;BME280;25875;48.202;16.334;2023-02-02T03:09:40;98570.09;;;-0.29;71.88
40155;BME280;25875;48.202;16.334;2023-02-02T03:12:09;99010.44;;;2.33;72.26
40155;BME280;25875;48.202;16.334;2023-02-02T03:14:36;99011.38;;;2.31;72.19
40155;BME280;25875;48.202;16.334;2023-02-02T03:17:03;99004.47;;;2.28;72.01
40155;BME280;25875;48.202;16.334;2023-02-02T03:19:32;98724.34;;;0.19;71.74
40155;BME280;25875;48.202;16.334;2023-02-02T03:21:59;99005.41;;;2.26;72.03
40155;BME280;25875;48.202;16.334;2023-02-02T03:24:25;99009.78;;;2.25;72.00
40155;BME280;25875;48.202;16.334;2023-02-02T03:26:52;99008.84;;;2.28;72.08
40155;BME280;25875;48.202;16.334;2023-02-02T03:29:19;99008.84;;;2.28;72.14
40155;BME280;25875;48.202;16.334;2023-02-02T03:31:46;98998.41;;;2.26;72.01
40155;BME280;25875;48.202;16.334;2023-02-02T03:34:13;99009.78;;;2.25;72.19
40155;BME280;25875;48.202;16.334;2023-02-02T03:36:41;99012.41;;;2.25;72.39
40155;BME280;25875;48.202;16.334;2023-02-02T03:39:08;99008.09;;;2.22;72.23
40155;BME280;25875;48.202;16.334;2023-02-02T03:41:35;98601.00;;;-0.16;72.06
40155;BME280;25875;48.202;16.334;2023-02-02T03:44:01;99000.22;;;2.24;72.30
40155;BME280;25875;48.202;16.334;2023-02-02T03:46:28;99002.88;;;2.22;72.46
40155;BME280;25875;48.202;16.334;2023-02-02T03:48:55;99001.94;;;2.25;72.28
40155;BME280;25875;48.202;16.334;2023-02-02T03:51:21;99005.41;;;2.26;72.17
40155;BME280;25875;48.202;16.334;2023-02-02T03:53:49;98994.91;;;2.27;72.24
40155;BME280;25875;48.202;16.334;2023-02-02T03:56:16;99009.66;;;2.30;72.31
40155;BME280;25875;48.202;16.334;2023-02-02T03:58:43;99000.09;;;2.29;72.28
40155;BME280;25875;48.202;16.334;2023-02-02T04:01:12;98993.91;;;2.31;72.04
40155;BME280;25875;48.202;16.334;2023-02-02T04:03:39;98991.25;;;2.33;71.94
40155;BME280;25875;48.202;16.334;2023-02-02T04:06:06;98987.75;;;2.34;71.75
40155;BME280;25875;48.202;16.334;2023-02-02T04:08:33;98986.03;;;2.33;71.98
40155;BME280;25875;48.202;16.334;2023-02-02T04:11:02;98990.41;;;2.32;71.90
40155;BME280;25875;48.202;16.334;2023-02-02T04:13:28;98993.06;;;2.31;72.03
40155;BME280;25875;48.202;16.334;2023-02-02T04:15:56;98951.53;;;1.87;72.28
40155;BME280;25875;48.202;16.334;2023-02-02T04:18:23;99019.31;;;2.28;72.35
40155;BME280;25875;48.202;16.334;2023-02-02T04:20:55;99012.44;;;2.23;72.97
40155;BME280;25875;48.202;16.334;2023-02-02T04:23:21;99013.38;;;2.21;72.52
40155;BME280;25875;48.202;16.334;2023-02-02T04:25:49;99003.81;;;2.20;72.64
40155;BME280;25875;48.202;16.334;2023-02-02T04:28:17;99014.28;;;2.20;72.61
40155;BME280;25875;48.202;16.334;2023-02-02T04:30:44;99002.97;;;2.19;72.77
40155;BME280;25875;48.202;16.334;2023-02-02T04:33:11;99012.56;;;2.19;72.71
40155;BME280;25875;48.202;16.334;2023-02-02T04:35:37;99017.78;;;2.19;72.96
40155;BME280;25875;48.202;16.334;2023-02-02T04:38:04;99011.75;;;2.17;72.94
40155;BME280;25875;48.202;16.334;2023-02-02T04:40:31;99023.06;;;2.17;73.10
40155;BME280;25875;48.202;16.334;2023-02-02T04:42:58;99017.88;;;2.16;73.55
40155;BME280;25875;48.202;16.334;2023-02-02T04:45:26;99009.16;;;2.15;73.24
40155;BME280;25875;48.202;16.334;2023-02-02T04:47:53;99007.41;;;2.16;73.44
40155;BME280;25875;48.202;16.334;2023-02-02T04:50:20;99012.63;;;2.16;73.27
40155;BME280;25875;48.202;16.334;2023-02-02T04:52:46;99019.59;;;2.17;73.21
40155;BME280;25875;48.202;16.334;2023-02-02T04:55:14;99020.44;;;2.17;73.27
40155;BME280;25875;48.202;16.334;2023-02-02T04:57:41;99029.16;;;2.18;73.14
40155;BME280;25875;48.202;16.334;2023-02-02T05:00:09;99021.25;;;2.19;73.05
40155;BME280;25875;48.202;16.334;2023-02-02T05:02:38;98985.00;;;2.07;72.96
40155;BME280;25875;48.202;16.334;2023-02-02T05:05:08;99017.72;;;2.22;72.97
40155;BME280;25875;48.202;16.334;2023-02-02T05:07:36;98932.97;;;1.66;72.90
40155;BME280;25875;48.202;16.334;2023-02-02T05:10:05;99028.97;;;2.24;72.96
40155;BME280;25875;48.202;16.334;2023-02-02T05:12:34;99026.41;;;2.22;72.79
40155;BME280;25875;48.202;16.334;2023-02-02T05:15:01;99028.13;;;2.23;72.59
40155;BME280;25875;48.202;16.334;2023-02-02T05:17:29;98951.66;;;1.83;72.51
40155;BME280;25875;48.202;16.334;2023-02-02T05:19:58;99018.53;;;2.24;72.58
40155;BME280;25875;48.202;16.334;2023-02-02T05:22:25;99035.06;;;2.25;72.37
40155;BME280;25875;48.202;16.334;2023-02-02T05:24:51;99042.03;;;2.26;72.21
40155;BME280;25875;48.202;16.334;2023-02-02T05:27:18;99034.13;;;2.27;72.21
40155;BME280;25875;48.202;16.334;2023-02-02T05:29:46;99035.00;;;2.28;72.08
40155;BME280;25875;48.202;16.334;2023-02-02T05:32:12;99020.16;;;2.28;71.99
40155;BME280;25875;48.202;16.334;2023-02-02T05:34:39;99025.34;;;2.30;71.67
40155;BME280;25875;48.202;16.334;2023-02-02T05:37:07;99031.44;;;2.30;71.70
40155;BME280;25875;48.202;16.334;2023-02-02T05:39:34;99034.03;;;2.30;71.66
40155;BME280;25875;48.202;16.334;2023-02-02T05:42:01;99031.44;;;2.30;71.46
40155;BME280;25875;48.202;16.334;2023-02-02T05:44:28;99038.41;;;2.30;71.45
40155;BME280;25875;48.202;16.334;2023-02-02T05:46:54;99040.22;;;2.28;71.43
40155;BME280;25875;48.202;16.334;2023-02-02T05:49:21;99038.53;;;2.25;71.60
40155;BME280;25875;48.202;16.334;2023-02-02T05:51:51;99034.16;;;2.26;71.76
40155;BME280;25875;48.202;16.334;2023-02-02T05:54:20;99031.56;;;2.26;71.69
40155;BME280;25875;48.202;16.334;2023-02-02T05:56:49;98860.25;;;1.15;71.58
40155;BME280;25875;48.202;16.334;2023-02-02T05:59:16;99034.22;;;2.24;71.58
40155;BME280;25875;48.202;16.334;2023-02-02T06:01:44;99053.41;;;2.23;71.50
40155;BME280;25875;48.202;16.334;2023-02-02T06:04:11;99031.09;;;2.10;71.41
40155;BME280;25875;48.202;16.334;2023-02-02T06:06:38;99030.31;;;2.06;71.38
40155;BME280;25875;48.202;16.334;2023-02-02T06:09:05;99063.06;;;2.21;71.46
40155;BME280;25875;48.202;16.334;2023-02-02T06:11:33;99065.66;;;2.21;71.28
40155;BME280;25875;48.202;16.334;2023-02-02T06:14:00;99065.66;;;2.21;71.40
40155;BME280;25875;48.202;16.334;2023-02-02T06:16:27;99063.91;;;2.21;71.23
40155;BME280;25875;48.202;16.334;2023-02-02T06:18:54;99070.00;;;2.22;71.39
40155;BME280;25875;48.202;16.334;2023-02-02T06:21:21;99058.19;;;2.07;71.38
40155;BME280;25875;48.202;16.334;2023-02-02T06:23:49;99082.19;;;2.23;71.58
40155;BME280;25875;48.202;16.334;2023-02-02T06:26:17;98997.41;;;1.65;71.37
40155;BME280;25875;48.202;16.334;2023-02-02T06:28:49;99087.53;;;2.18;71.98
40155;BME280;25875;48.202;16.334;2023-02-02T06:31:16;99094.47;;;2.19;71.88
40155;BME280;25875;48.202;16.334;2023-02-02T06:33:44;99105.81;;;2.18;71.97
40155;BME280;25875;48.202;16.334;2023-02-02T06:36:11;99103.16;;;2.20;71.86
40155;BME280;25875;48.202;16.334;2023-02-02T06:38:38;99102.31;;;2.19;71.95
40155;BME280;25875;48.202;16.334;2023-02-02T06:41:04;99120.63;;;2.19;72.16
40155;BME280;25875;48.202;16.334;2023-02-02T06:43:32;99015.88;;;1.56;72.10
40155;BME280;25875;48.202;16.334;2023-02-02T06:46:00;99131.94;;;2.20;72.25
40155;BME280;25875;48.202;16.334;2023-02-02T06:48:27;99124.09;;;2.20;72.51
40155;BME280;25875;48.202;16.334;2023-02-02T06:50:56;99135.41;;;2.20;72.39
40155;BME280;25875;48.202;16.334;2023-02-02T06:53:23;99145.78;;;2.23;72.33
40155;BME280;25875;48.202;16.334;2023-02-02T06:55:54;99158.88;;;2.23;72.64
40155;BME280;25875;48.202;16.334;2023-02-02T06:58:21;99152.69;;;2.26;72.15
40155;BME280;25875;48.202;16.334;2023-02-02T07:00:48;99151.84;;;2.26;72.13
40155;BME280;25875;48.202;16.334;2023-02-02T07:03:16;99150.03;;;2.28;72.37
40155;BME280;25875;48.202;16.334;2023-02-02T07:05:45;98986.88;;;1.31;72.11
40155;BME280;25875;48.202;16.334;2023-02-02T07:08:12;98448.72;;;-1.88;71.96
40155;BME280;25875;48.202;16.334;2023-02-02T07:10:39;99158.63;;;2.33;72.17
40155;BME280;25875;48.202;16.334;2023-02-02T07:13:07;99176.91;;;2.34;72.27
40155;BME280;25875;48.202;16.334;2023-02-02T07:15:34;99168.97;;;2.37;71.95
40155;BME280;25875;48.202;16.334;2023-02-02T07:18:04;99171.56;;;2.39;72.00
40155;BME280;25875;48.202;16.334;2023-02-02T07:20:32;99169.75;;;2.41;71.95
40155;BME280;25875;48.202;16.334;2023-02-02T07:23:01;99169.75;;;2.41;71.75
40155;BME280;25875;48.202;16.334;2023-02-02T07:25:28;99161.03;;;2.42;71.65
40155;BME280;25875;48.202;16.334;2023-02-02T07:27:55;99170.59;;;2.43;71.66
40155;BME280;25875;48.202;16.334;2023-02-02T07:30:23;99175.75;;;2.46;71.45
40155;BME280;25875;48.202;16.334;2023-02-02T07:32:54;99151.72;;;2.30;71.53
40155;BME280;25875;48.202;16.334;2023-02-02T07:35:20;99167.03;;;2.45;71.28
40155;BME280;25875;48.202;16.334;2023-02-02T07:37:51;99171.38;;;2.46;71.19
40155;BME280;25875;48.202;16.334;2023-02-02T07:40:19;99170.44;;;2.49;70.93
40155;BME280;25875;48.202;16.334;2023-02-02T07:42:46;99177.31;;;2.53;70.73
40155;BME280;25875;48.202;16.334;2023-02-02T07:45:13;99172.03;;;2.54;70.81
40155;BME280;25875;48.202;16.334;2023-02-02T07:47:40;99168.50;;;2.55;70.77
40155;BME280;25875;48.202;16.334;2023-02-02T07:50:08;99163.25;;;2.57;70.71
40155;BME280;25875;48.202;16.334;2023-02-02T07:52:35;99176.28;;;2.59;70.70
40155;BME280;25875;48.202;16.334;2023-02-02T07:55:04;99181.53;;;2.59;70.62
40155;BME280;25875;48.202;16.334;2023-02-02T07:57:31;99184.06;;;2.62;70.41
40155;BME280;25875;48.202;16.334;2023-02-02T07:59:58;99183.06;;;2.66;70.51
40155;BME280;25875;48.202;16.334;2023-02-02T08:02:25;99181.28;;;2.68;70.50
40155;BME280;25875;48.202;16.334;2023-02-02T08:04:52;99188.19;;;2.70;70.36
40155;BME280;25875;48.202;16.334;2023-02-02T08:07:19;99192.50;;;2.73;70.47
40155;BME280;25875;48.202;16.334;2023-02-02T08:09:49;99181.13;;;2.74;70.34
40155;BME280;25875;48.202;16.334;2023-02-02T08:12:18;99189.75;;;2.77;70.12
40155;BME280;25875;48.202;16.334;2023-02-02T08:14:45;99196.72;;;2.78;70.21
40155;BME280;25875;48.202;16.334;2023-02-02T08:17:12;99175.75;;;2.78;70.20
40155;BME280;25875;48.202;16.334;2023-02-02T08:19:39;99189.72;;;2.79;69.96
40155;BME280;25875;48.202;16.334;2023-02-02T08:22:06;99204.44;;;2.83;69.89
40155;BME280;25875;48.202;16.334;2023-02-02T08:24:33;99193.94;;;2.84;69.90
40155;BME280;25875;48.202;16.334;2023-02-02T08:27:05;99184.09;;;2.93;69.92
40155;BME280;25875;48.202;16.334;2023-02-02T08:29:33;99150.34;;;2.83;69.79
40155;BME280;25875;48.202;16.334;2023-02-02T08:32:01;99187.84;;;3.15;69.49
40155;BME280;25875;48.202;16.334;2023-02-02T08:34:28;99185.06;;;3.21;69.55
40155;BME280;25875;48.202;16.334;2023-02-02T08:36:55;99184.97;;;3.24;69.09
40155;BME280;25875;48.202;16.334;2023-02-02T08:39:22;99192.78;;;3.26;68.69
40155;BME280;25875;48.202;16.334;2023-02-02T08:41:49;99197.22;;;3.24;68.65
40155;BME280;25875;48.202;16.334;2023-02-02T08:44:16;99201.63;;;3.22;68.82
40155;BME280;25875;48.202;16.334;2023-02-02T08:46:44;98760.69;;;0.62;68.37
40155;BME280;25875;48.202;16.334;2023-02-02T08:49:11;99160.06;;;2.78;68.72
40155;BME280;25875;48.202;16.334;2023-02-02T08:51:38;99212.13;;;3.22;68.61
40155;BME280;25875;48.202;16.334;2023-02-02T08:54:05;99221.69;;;3.23;68.85
40155;BME280;25875;48.202;16.334;2023-02-02T08:56:31;99106.50;;;2.59;68.83
40155;BME280;25875;48.202;16.334;2023-02-02T08:58:58;99225.16;;;3.23;68.89
40155;BME280;25875;48.202;16.334;2023-02-02T09:01:28;99226.06;;;3.22;68.70
40155;BME280;25875;48.202;16.334;2023-02-02T09:03:58;99229.59;;;3.21;68.58
40155;BME280;25875;48.202;16.334;2023-02-02T09:06:29;99220.91;;;3.19;68.83
40155;BME280;25875;48.202;16.334;2023-02-02T09:08:57;99234.88;;;3.19;68.85
40155;BME280;25875;48.202;16.334;2023-02-02T09:11:24;99221.72;;;3.21;68.82
40155;BME280;25875;48.202;16.334;2023-02-02T09:13:53;99230.50;;;3.20;68.76
40155;BME280;25875;48.202;16.334;2023-02-02T09:16:22;99186.69;;;2.94;68.66
40155;BME280;25875;48.202;16.334;2023-02-02T09:18:49;99228.81;;;3.17;68.85
40155;BME280;25875;48.202;16.334;2023-02-02T09:21:18;99240.19;;;3.16;68.75
40155;BME280;25875;48.202;16.334;2023-02-02T09:23:46;99237.53;;;3.18;68.54
40155;BME280;25875;48.202;16.334;2023-02-02T09:26:15;98836.06;;;0.73;68.39
40155;BME280;25875;48.202;16.334;2023-02-02T09:28:44;99230.44;;;3.22;68.34
40155;BME280;25875;48.202;16.334;2023-02-02T09:31:11;99231.31;;;3.22;68.25
40155;BME280;25875;48.202;16.334;2023-02-02T09:33:38;99240.88;;;3.23;68.27
40155;BME280;25875;48.202;16.334;2023-02-02T09:36:07;99161.16;;;2.70;68.01
40155;BME280;25875;48.202;16.334;2023-02-02T09:38:37;99206.56;;;3.01;68.22
40155;BME280;25875;48.202;16.334;2023-02-02T09:44:31;99248.56;;;3.29;68.01
40155;BME280;25875;48.202;16.334;2023-02-02T09:47:07;99253.81;;;3.29;68.07
40155;BME280;25875;48.202;16.334;2023-02-02T09:49:50;99256.50;;;3.26;67.79
40155;BME280;25875;48.202;16.334;2023-02-02T09:52:23;99230.81;;;3.08;68.06
40155;BME280;25875;48.202;16.334;2023-02-02T09:54:56;99248.66;;;3.26;67.86
40155;BME280;25875;48.202;16.334;2023-02-02T09:57:28;99250.41;;;3.26;67.97
40155;BME280;25875;48.202;16.334;2023-02-02T09:59:57;99247.75;;;3.27;67.93
40155;BME280;25875;48.202;16.334;2023-02-02T10:02:27;99253.84;;;3.28;67.69
40155;BME280;25875;48.202;16.334;2023-02-02T10:05:01;99251.19;;;3.29;67.78
40155;BME280;25875;48.202;16.334;2023-02-02T10:07:37;99252.00;;;3.31;67.64
40155;BME280;25875;48.202;16.334;2023-02-02T10:10:13;99255.41;;;3.35;67.64
40155;BME280;25875;48.202;16.334;2023-02-02T10:12:44;99312.09;;;3.37;67.60
40155;BME280;25875;48.202;16.334;2023-02-02T10:15:15;99243.84;;;3.42;67.63
40155;BME280;25875;48.202;16.334;2023-02-02T10:17:48;99261.22;;;3.46;67.20
40155;BME280;25875;48.202;16.334;2023-02-02T10:20:24;99261.13;;;3.49;67.30
40155;BME280;25875;48.202;16.334;2023-02-02T10:22:58;99254.94;;;3.51;67.18
40155;BME280;25875;48.202;16.334;2023-02-02T10:25:33;99255.75;;;3.53;67.25
40155;BME280;25875;48.202;16.334;2023-02-02T10:28:05;99264.38;;;3.57;66.84
40155;BME280;25875;48.202;16.334;2023-02-02T10:30:44;99199.16;;;3.17;66.64
40155;BME280;25875;48.202;16.334;2023-02-02T10:33:17;99264.25;;;3.62;66.68
40155;BME280;25875;48.202;16.334;2023-02-02T10:35:50;99262.44;;;3.64;66.72
40155;BME280;25875;48.202;16.334;2023-02-02T10:38:22;99258.84;;;3.68;66.78
40155;BME280;25875;48.202;16.334;2023-02-02T10:41:00;99259.66;;;3.70;66.42
40155;BME280;25875;48.202;16.334;2023-02-02T10:43:49;99256.03;;;3.74;66.35
40155;BME280;25875;48.202;16.334;2023-02-02T10:46:22;99262.91;;;3.78;66.24
40155;BME280;25875;48.202;16.334;2023-02-02T10:49:12;99260.25;;;3.79;65.49
40155;BME280;25875;48.202;16.334;2023-02-02T10:51:40;99178.25;;;3.15;65.96
40155;BME280;25875;48.202;16.334;2023-02-02T10:54:24;99251.47;;;3.80;65.73
40155;BME280;25875;48.202;16.334;2023-02-02T10:56:57;99255.84;;;3.80;66.06
40155;BME280;25875;48.202;16.334;2023-02-02T10:59:29;99267.22;;;3.80;65.96
40155;BME280;25875;48.202;16.334;2023-02-02T11:01:57;99265.34;;;3.84;65.85
40155;BME280;25875;48.202;16.334;2023-02-02T11:04:24;99266.25;;;3.83;66.19
40155;BME280;25875;48.202;16.334;2023-02-02T11:07:09;99272.50;;;3.79;66.26
40155;BME280;25875;48.202;16.334;2023-02-02T11:09:44;99270.81;;;3.76;66.36
40155;BME280;25875;48.202;16.334;2023-02-02T11:12:18;99273.47;;;3.75;66.04
40155;BME280;25875;48.202;16.334;2023-02-02T11:14:46;99266.66;;;3.69;65.71
40155;BME280;25875;48.202;16.334;2023-02-02T11:17:19;99264.91;;;3.70;66.52
40155;BME280;25875;48.202;16.334;2023-02-02T11:19:47;99239.16;;;3.53;66.75
40155;BME280;25875;48.202;16.334;2023-02-02T11:22:28;99258.94;;;3.65;66.09
40155;BME280;25875;48.202;16.334;2023-02-02T11:24:59;99277.19;;;3.68;66.44
40155;BME280;25875;48.202;16.334;2023-02-02T11:27:30;99270.28;;;3.65;66.65
40155;BME280;25875;48.202;16.334;2023-02-02T11:30:00;99233.47;;;3.39;66.50
40155;BME280;25875;48.202;16.334;2023-02-02T11:32:35;99261.63;;;3.62;66.77
40155;BME280;25875;48.202;16.334;2023-02-02T11:35:14;99266.97;;;3.59;66.59
40155;BME280;25875;48.202;16.334;2023-02-02T11:38:07;98995.78;;;1.95;66.73
40155;BME280;25875;48.202;16.334;2023-02-02T11:40:36;99274.81;;;3.59;67.17
40155;BME280;25875;48.202;16.334;2023-02-02T11:43:13;99234.31;;;3.39;67.05
40155;BME280;25875;48.202;16.334;2023-02-02T11:45:41;99258.25;;;3.58;67.17
40155;BME280;25875;48.202;16.334;2023-02-02T11:48:14;99262.66;;;3.56;67.12
40155;BME280;25875;48.202;16.334;2023-02-02T11:50:44;99268.03;;;3.51;67.17
40155;BME280;25875;48.202;16.334;2023-02-02T11:53:21;99103.72;;;2.65;67.13
40155;BME280;25875;48.202;16.334;2023-02-02T11:55:49;98868.59;;;1.29;67.12
40155;BME280;25875;48.202;16.334;2023-02-02T11:58:20;99273.22;;;3.53;67.17
40155;BME280;25875;48.202;16.334;2023-02-02T12:00:54;99251.38;;;3.54;67.40
40155;BME280;25875;48.202;16.334;2023-02-02T12:03:24;99256.59;;;3.54;67.47
40155;BME280;25875;48.202;16.334;2023-02-02T12:05:51;99256.56;;;3.56;67.41
40155;BME280;25875;48.202;16.334;2023-02-02T12:08:18;99193.09;;;3.15;67.48
40155;BME280;25875;48.202;16.334;2023-02-02T12:10:50;99255.56;;;3.60;67.49
40155;BME280;25875;48.202;16.334;2023-02-02T12:13:36;99255.56;;;3.60;67.35
40155;BME280;25875;48.202;16.334;2023-02-02T12:16:23;99255.56;;;3.60;67.01
40155;BME280;25875;48.202;16.334;2023-02-02T12:19:08;99243.34;;;3.60;67.02
40155;BME280;25875;48.202;16.334;2023-02-02T12:21:46;99244.25;;;3.59;66.82
40155;BME280;25875;48.202;16.334;2023-02-02T12:24:26;99238.19;;;3.57;66.91
40155;BME280;25875;48.202;16.334;2023-02-02T12:27:03;99240.66;;;3.62;66.99
40155;BME280;25875;48.202;16.334;2023-02-02T12:29:44;99247.63;;;3.63;66.87
40155;BME280;25875;48.202;16.334;2023-02-02T12:32:25;99191.16;;;3.22;67.01
40155;BME280;25875;48.202;16.334;2023-02-02T12:35:04;99214.00;;;3.47;66.87
40155;BME280;25875;48.202;16.334;2023-02-02T12:37:45;99239.69;;;3.66;66.96
40155;BME280;25875;48.202;16.334;2023-02-02T12:40:31;99232.63;;;3.68;66.86
40155;BME280;25875;48.202;16.334;2023-02-02T12:43:15;99224.75;;;3.68;66.98
40155;BME280;25875;48.202;16.334;2023-02-02T12:45:54;99219.47;;;3.69;66.98
40155;BME280;25875;48.202;16.334;2023-02-02T12:48:38;99135.44;;;3.16;66.81
40155;BME280;25875;48.202;16.334;2023-02-02T12:51:18;99228.16;;;3.71;66.68
40155;BME280;25875;48.202;16.334;2023-02-02T12:54:04;99227.28;;;3.71;66.63
40155;BME280;25875;48.202;16.334;2023-02-02T12:56:40;99232.50;;;3.72;66.86
40155;BME280;25875;48.202;16.334;2023-02-02T12:59:13;99228.09;;;3.73;66.83
40155;BME280;25875;48.202;16.334;2023-02-02T13:01:58;99235.06;;;3.74;66.81
40155;BME280;25875;48.202;16.334;2023-02-02T13:04:45;99227.28;;;3.71;66.90
40155;BME280;25875;48.202;16.334;2023-02-02T13:07:27;99219.44;;;3.71;67.00
40155;BME280;25875;48.202;16.334;2023-02-02T13:10:06;99223.81;;;3.70;67.02
40155;BME280;25875;48.202;16.334;2023-02-02T13:12:40;99221.25;;;3.69;67.10
40155;BME280;25875;48.202;16.334;2023-02-02T13:15:11;99185.09;;;3.50;67.15
40155;BME280;25875;48.202;16.334;2023-02-02T13:17:43;99118.06;;;3.14;67.06
40155;BME280;25875;48.202;16.334;2023-02-02T13:20:21;99221.25;;;3.69;67.15
40155;BME280;25875;48.202;16.334;2023-02-02T13:22:52;99222.16;;;3.68;67.25
40155;BME280;25875;48.202;16.334;2023-02-02T13:25:24;99214.28;;;3.68;67.25